createdAt,value
2018-10-16T00:01:42.444Z,19.67
2018-10-16T00:04:09.796Z,16.33
2018-10-16T00:06:36.844Z,15.60
2018-10-16T00:09:03.994Z,15.27
2018-10-16T00:11:31.049Z,16.50
2018-10-16T00:13:58.092Z,15.13
2018-10-16T00:16:25.145Z,14.83
2018-10-16T00:18:52.196Z,14.77
2018-10-16T00:21:19.346Z,15.00
2018-10-16T00:23:46.355Z,14.83
2018-10-16T00:26:27.983Z,14.97
2018-10-16T00:29:03.625Z,15.67
2018-10-16T00:31:30.684Z,15.03
2018-10-16T00:33:57.731Z,15.67
2018-10-16T00:36:24.780Z,14.93
2018-10-16T00:38:51.831Z,15.33
2018-10-16T00:41:19.796Z,16.83
2018-10-16T00:43:46.846Z,16.13
2018-10-16T00:46:13.992Z,16.63
2018-10-16T00:48:41.050Z,15.70
2018-10-16T00:51:08.201Z,15.97
2018-10-16T00:53:35.354Z,16.47
2018-10-16T00:56:02.392Z,17.00
2018-10-16T00:58:29.409Z,17.40
2018-10-16T01:00:56.495Z,17.53
2018-10-16T01:03:23.539Z,15.73
2018-10-16T01:05:50.588Z,17.57
2018-10-16T01:08:21.634Z,17.97
2018-10-16T01:10:48.677Z,16.67
2018-10-16T01:13:15.731Z,18.63
2018-10-16T01:15:42.780Z,19.03
2018-10-16T01:18:09.824Z,18.33
2018-10-16T01:20:36.871Z,18.13
2018-10-16T01:23:03.925Z,18.73
2018-10-16T01:25:30.969Z,17.07
2018-10-16T01:27:58.017Z,18.37
2018-10-16T01:30:25.076Z,18.30
2018-10-16T01:32:52.115Z,17.17
2018-10-16T01:38:19.492Z,13.93
2018-10-16T01:40:46.545Z,15.77
2018-10-16T01:43:13.794Z,17.83
2018-10-16T01:45:40.848Z,16.67
2018-10-16T01:48:07.891Z,16.17
2018-10-16T01:50:35.554Z,15.27
2018-10-16T01:53:02.608Z,16.97
2018-10-16T01:55:29.683Z,16.57
2018-10-16T01:57:56.699Z,17.20
2018-10-16T02:00:23.753Z,15.43
2018-10-16T02:02:50.796Z,14.97
2018-10-16T02:05:17.954Z,15.77
2018-10-16T02:07:44.997Z,16.60
2018-10-16T02:10:12.051Z,14.83
2018-10-16T02:12:39.092Z,16.03
2018-10-16T02:15:06.145Z,15.57
2018-10-16T02:17:33.292Z,14.97
2018-10-16T02:20:01.058Z,14.53
2018-10-16T02:22:28.114Z,15.17
2018-10-16T02:24:55.157Z,16.10
2018-10-16T02:27:28.286Z,14.20
2018-10-16T02:29:55.295Z,14.67
2018-10-16T02:32:22.343Z,17.03
2018-10-16T02:34:49.352Z,16.00
2018-10-16T02:37:16.411Z,14.73
2018-10-16T02:39:44.928Z,14.17
2018-10-16T02:42:11.971Z,14.27
2018-10-16T02:44:39.123Z,14.17
2018-10-16T02:47:06.170Z,13.90
2018-10-16T02:49:33.228Z,13.77
2018-10-16T02:52:00.276Z,13.37
2018-10-16T02:54:27.318Z,14.17
2018-10-16T02:56:54.370Z,14.67
2018-10-16T02:59:21.413Z,15.13
2018-10-16T03:01:48.462Z,14.67
2018-10-16T03:04:15.515Z,15.00
2018-10-16T03:06:43.282Z,16.63
2018-10-16T03:09:10.324Z,14.50
2018-10-16T03:11:37.373Z,14.40
2018-10-16T03:14:04.428Z,14.50
2018-10-16T03:16:31.469Z,14.47
2018-10-16T03:18:58.517Z,15.07
2018-10-16T03:21:25.572Z,13.70
2018-10-16T03:23:52.724Z,13.57
2018-10-16T03:26:19.768Z,13.77
2018-10-16T03:28:46.785Z,12.50
2018-10-16T03:31:13.864Z,12.70
2018-10-16T03:33:40.917Z,12.50
2018-10-16T03:36:08.174Z,12.73
2018-10-16T03:38:38.087Z,12.13
2018-10-16T03:41:05.136Z,11.70
2018-10-16T03:43:32.280Z,11.90
2018-10-16T03:45:59.850Z,12.03
2018-10-16T03:48:26.890Z,11.77
2018-10-16T03:50:54.456Z,11.37
2018-10-16T03:53:21.606Z,11.63
2018-10-16T03:55:48.650Z,11.90
2018-10-16T03:58:15.698Z,11.63
2018-10-16T04:00:42.849Z,12.47
2018-10-16T04:03:09.905Z,12.20
2018-10-16T04:05:36.950Z,12.23
2018-10-16T04:08:04.099Z,12.23
2018-10-16T04:10:31.146Z,14.87
2018-10-16T04:12:58.156Z,11.73
2018-10-16T04:15:25.140Z,10.60
2018-10-16T04:17:52.394Z,11.43
2018-10-16T04:20:19.546Z,11.20
2018-10-16T04:22:46.636Z,11.03
2018-10-16T04:25:13.647Z,14.97
2018-10-16T04:27:41.304Z,13.23
2018-10-16T04:30:08.353Z,12.73
2018-10-16T04:32:35.406Z,10.97
2018-10-16T04:35:02.451Z,10.97
2018-10-16T04:37:29.462Z,11.80
2018-10-16T04:39:56.445Z,11.57
2018-10-16T04:42:23.494Z,10.67
2018-10-16T04:44:52.220Z,10.07
2018-10-16T04:47:19.331Z,10.23
2018-10-16T04:49:46.586Z,11.27
2018-10-16T04:52:13.735Z,11.37
2018-10-16T04:54:40.784Z,11.73
2018-10-16T04:57:07.730Z,11.60
2018-10-16T04:59:35.158Z,11.47
2018-10-16T05:02:02.242Z,11.77
2018-10-16T05:04:30.926Z,12.33
2018-10-16T05:06:59.516Z,12.60
2018-10-16T05:09:26.558Z,12.20
2018-10-16T05:11:54.016Z,12.53
2018-10-16T05:14:21.065Z,12.93
2018-10-16T05:16:48.122Z,12.63
2018-10-16T05:19:17.708Z,12.23
2018-10-16T05:21:44.771Z,12.47
2018-10-16T05:24:11.818Z,12.10
2018-10-16T05:26:39.074Z,11.37
2018-10-16T05:29:06.226Z,11.43
2018-10-16T05:31:33.568Z,11.17
2018-10-16T05:34:02.369Z,11.93
2018-10-16T05:36:30.034Z,12.17
2018-10-16T05:38:57.092Z,11.93
2018-10-16T05:41:24.128Z,11.87
2018-10-16T05:43:51.280Z,11.10
2018-10-16T05:46:18.327Z,11.53
2018-10-16T05:48:45.382Z,11.50
2018-10-16T05:51:12.425Z,11.20
2018-10-16T05:53:39.474Z,11.43
2018-10-16T05:56:06.528Z,11.37
2018-10-16T05:58:33.680Z,12.73
2018-10-16T06:01:00.927Z,11.30
2018-10-16T06:03:28.597Z,11.43
2018-10-16T06:05:55.638Z,11.60
2018-10-16T06:08:22.687Z,12.30
2018-10-16T06:10:49.862Z,11.10
2018-10-16T06:13:16.988Z,11.70
2018-10-16T06:15:44.138Z,11.63
2018-10-16T06:18:11.193Z,13.13
2018-10-16T06:20:38.238Z,10.80
2018-10-16T06:23:06.069Z,11.50
2018-10-16T06:25:33.159Z,12.43
2018-10-16T06:28:00.306Z,11.77
2018-10-16T06:30:27.447Z,12.87
2018-10-16T06:32:54.509Z,13.40
2018-10-16T06:35:21.655Z,14.10
2018-10-16T06:37:48.710Z,14.20
2018-10-16T06:40:15.862Z,14.73
2018-10-16T06:42:42.903Z,14.60
2018-10-16T06:45:10.567Z,14.43
2018-10-16T06:47:37.927Z,15.20
2018-10-16T06:50:05.789Z,14.40
2018-10-16T06:52:34.688Z,13.93
2018-10-16T06:55:01.759Z,14.63
2018-10-16T06:57:28.786Z,15.70
2018-10-16T06:59:56.969Z,14.40
2018-10-16T07:02:24.007Z,14.73
2018-10-16T07:04:51.056Z,13.93
2018-10-16T07:07:18.335Z,14.70
2018-10-16T07:09:45.147Z,15.40
2018-10-16T07:12:12.298Z,13.00
2018-10-16T07:14:39.451Z,15.33
2018-10-16T07:17:06.600Z,15.37
2018-10-16T07:19:34.061Z,14.17
2018-10-16T07:22:02.850Z,15.53
2018-10-16T07:24:29.899Z,14.80
2018-10-16T07:26:56.945Z,15.37
2018-10-16T07:29:23.989Z,15.33
2018-10-16T07:31:51.139Z,14.93
2018-10-16T07:34:18.188Z,16.00
2018-10-16T07:36:45.241Z,14.93
2018-10-16T07:39:12.284Z,15.43
2018-10-16T07:41:39.236Z,14.47
2018-10-16T07:44:06.279Z,15.03
2018-10-16T07:46:33.327Z,14.70
2018-10-16T07:49:00.479Z,14.87
2018-10-16T07:51:27.533Z,14.77
2018-10-16T07:53:54.525Z,15.20
2018-10-16T07:56:21.624Z,15.63
2018-10-16T07:58:48.679Z,16.10
2018-10-16T08:01:15.929Z,16.23
2018-10-16T08:03:43.076Z,15.13
2018-10-16T08:06:10.130Z,15.43
2018-10-16T08:08:39.534Z,15.83
2018-10-16T08:11:07.041Z,16.13
2018-10-16T08:13:34.138Z,16.47
2018-10-16T08:16:01.193Z,14.80
2018-10-16T08:18:30.079Z,14.80
2018-10-16T08:20:57.127Z,15.53
2018-10-16T08:23:24.279Z,14.60
2018-10-16T08:25:53.013Z,14.60
2018-10-16T08:28:20.019Z,15.80
2018-10-16T08:30:47.062Z,13.93
2018-10-16T08:33:14.322Z,15.10
2018-10-16T08:35:41.625Z,13.63
2018-10-16T08:38:08.721Z,13.53
2018-10-16T08:40:36.228Z,14.60
2018-10-16T08:43:03.586Z,15.00
2018-10-16T08:45:37.239Z,14.83
2018-10-16T08:48:19.115Z,15.23
2018-10-16T08:50:53.913Z,14.40
2018-10-16T08:53:21.683Z,15.93
2018-10-16T08:55:48.678Z,15.17
2018-10-16T08:58:15.726Z,14.60
2018-10-16T09:00:42.780Z,13.73
2018-10-16T09:03:10.030Z,14.53
2018-10-16T09:05:36.974Z,13.70
2018-10-16T09:08:04.024Z,12.83
2018-10-16T09:10:31.079Z,14.60
2018-10-16T09:12:58.181Z,13.10
2018-10-16T09:15:25.172Z,12.57
2018-10-16T09:17:53.245Z,12.80
2018-10-16T09:20:20.298Z,13.53
2018-10-16T09:22:47.449Z,13.50
2018-10-16T09:25:14.631Z,12.90
2018-10-16T09:27:41.645Z,13.73
2018-10-16T09:30:08.690Z,14.07
2018-10-16T09:32:35.745Z,13.30
2018-10-16T09:35:02.789Z,13.57
2018-10-16T09:37:29.827Z,12.63
2018-10-16T09:39:56.987Z,11.80
2018-10-16T09:42:24.040Z,11.67
2018-10-16T09:44:51.085Z,13.33
2018-10-16T09:47:18.132Z,12.23
2018-10-16T09:49:45.215Z,12.43
2018-10-16T09:52:12.230Z,13.57
2018-10-16T09:54:39.277Z,12.50
2018-10-16T09:57:06.429Z,12.27
2018-10-16T09:59:34.297Z,12.87
2018-10-16T10:02:01.655Z,12.23
2018-10-16T10:04:28.707Z,12.10
2018-10-16T10:06:55.752Z,12.67
2018-10-16T10:09:22.801Z,11.97
2018-10-16T10:11:49.790Z,11.47
2018-10-16T10:14:17.006Z,12.73
2018-10-16T10:16:44.355Z,12.13
2018-10-16T10:31:20.427Z,12.27
2018-10-16T10:33:47.577Z,11.40
2018-10-16T10:36:14.626Z,12.23
2018-10-16T10:38:41.678Z,12.20
2018-10-16T10:41:08.830Z,11.50
2018-10-16T10:43:35.873Z,12.05
2018-10-16T10:46:03.131Z,11.25
2018-10-16T10:48:30.174Z,11.88
2018-10-16T10:50:57.436Z,11.20
2018-10-16T10:53:24.375Z,12.13
2018-10-16T10:55:51.526Z,11.75
2018-10-16T10:58:18.580Z,11.73
2018-10-16T11:00:45.827Z,11.65
2018-10-16T11:03:12.970Z,12.13
2018-10-16T11:05:40.129Z,11.68
2018-10-16T11:08:07.184Z,10.95
2018-10-16T11:10:34.227Z,11.35
2018-10-16T11:13:01.486Z,11.18
2018-10-16T11:15:28.530Z,10.80
2018-10-16T11:17:55.577Z,10.82
2018-10-16T11:20:22.635Z,10.90
2018-10-16T11:22:49.675Z,10.13
2018-10-16T11:25:16.724Z,10.80
2018-10-16T11:27:43.776Z,12.10
2018-10-16T11:30:10.954Z,11.40
2018-10-16T11:32:37.972Z,11.18
2018-10-16T11:35:05.021Z,12.15
2018-10-16T11:37:32.074Z,11.27
2018-10-16T11:39:59.225Z,11.45
2018-10-16T11:42:26.376Z,10.38
2018-10-16T11:44:53.620Z,11.23
2018-10-16T11:47:20.775Z,11.18
2018-10-16T11:49:47.925Z,11.05
2018-10-16T11:52:15.148Z,10.82
2018-10-16T11:54:42.536Z,10.90
2018-10-16T11:57:10.300Z,10.52
2018-10-16T11:59:37.450Z,10.68
2018-10-16T12:02:04.523Z,11.30
2018-10-16T12:04:32.001Z,11.73
2018-10-16T12:06:59.157Z,10.98
2018-10-16T12:09:26.363Z,11.32
2018-10-16T12:11:55.458Z,10.90
2018-10-16T12:14:22.509Z,11.40
2018-10-16T12:16:49.627Z,10.18
2018-10-16T12:19:16.850Z,10.43
2018-10-16T12:21:44.210Z,10.73
2018-10-16T12:24:11.409Z,9.73
2018-10-16T12:26:38.366Z,10.18
2018-10-16T12:29:05.724Z,10.48
2018-10-16T12:31:33.086Z,11.02
2018-10-16T12:34:03.481Z,10.40
2018-10-16T12:36:30.963Z,10.30
2018-10-16T12:38:58.141Z,10.80
2018-10-16T12:41:25.999Z,10.35
2018-10-16T12:43:53.399Z,10.20
2018-10-16T12:46:21.212Z,10.27
2018-10-16T12:48:48.459Z,9.98
2018-10-16T12:51:16.591Z,9.88
2018-10-16T12:53:43.478Z,9.90
2018-10-16T12:56:11.906Z,9.30
2018-10-16T12:58:39.931Z,9.88
2018-10-16T13:01:07.287Z,9.85
2018-10-16T13:03:34.865Z,9.57
2018-10-16T13:06:02.308Z,9.90
2018-10-16T13:08:30.321Z,9.77
2018-10-16T13:10:59.229Z,9.10
2018-10-16T13:13:28.284Z,10.13
2018-10-16T13:15:56.098Z,9.43
2018-10-16T13:18:23.391Z,10.15
2018-10-16T13:20:50.743Z,10.25
2018-10-16T13:23:17.800Z,9.55
2018-10-16T13:25:44.881Z,9.45
2018-10-16T13:28:12.038Z,9.80
2018-10-16T13:30:39.857Z,10.00
2018-10-16T13:33:07.315Z,10.10
2018-10-16T13:35:34.372Z,9.38
2018-10-16T13:38:01.462Z,9.25
2018-10-16T13:40:28.873Z,9.80
2018-10-16T13:42:56.101Z,9.65
2018-10-16T13:45:23.071Z,9.70
2018-10-16T13:47:52.167Z,9.60
2018-10-16T13:50:19.522Z,9.95
2018-10-16T13:52:46.578Z,9.10
2018-10-16T13:55:14.390Z,9.10
2018-10-16T13:57:41.900Z,9.13
2018-10-16T14:00:14.372Z,9.52
2018-10-16T14:02:41.421Z,8.80
2018-10-16T14:05:08.574Z,9.80
2018-10-16T14:07:36.133Z,9.35
2018-10-16T14:10:04.133Z,9.48
2018-10-16T14:12:31.254Z,9.80
2018-10-16T14:14:58.713Z,10.32
2018-10-16T14:17:26.310Z,10.60
2018-10-16T14:19:53.371Z,10.30
2018-10-16T14:22:20.782Z,9.45
2018-10-16T14:24:48.141Z,10.30
2018-10-16T14:27:15.293Z,9.70
2018-10-16T14:29:42.340Z,9.35
2018-10-16T14:32:11.605Z,10.23
2018-10-16T14:34:40.078Z,10.18
2018-10-16T14:37:07.168Z,10.65
2018-10-16T14:39:34.217Z,10.82
2018-10-16T14:42:01.727Z,10.63
2018-10-16T14:44:29.481Z,10.27
2018-10-16T14:46:57.662Z,10.55
2018-10-16T14:49:25.075Z,10.48
2018-10-16T14:51:53.211Z,10.43
2018-10-16T14:54:20.196Z,9.32
2018-10-16T14:56:49.037Z,10.90
2018-10-16T14:59:16.934Z,9.95
2018-10-16T15:01:47.497Z,10.48
2018-10-16T15:04:15.930Z,10.18
2018-10-16T15:06:44.176Z,10.85
2018-10-16T15:09:11.499Z,10.90
2018-10-16T15:11:40.539Z,11.07
2018-10-16T15:14:09.998Z,10.40
2018-10-16T15:16:39.364Z,11.07
2018-10-16T15:19:08.981Z,10.25
2018-10-16T15:21:37.290Z,10.73
2018-10-16T15:24:05.509Z,10.90
2018-10-16T15:26:33.337Z,10.50
2018-10-16T15:29:01.553Z,11.27
2018-10-16T15:31:29.421Z,11.20
2018-10-16T15:33:57.218Z,11.32
2018-10-16T15:36:25.774Z,11.35
2018-10-16T15:38:55.167Z,11.63
2018-10-16T15:41:22.484Z,11.02
2018-10-16T15:43:49.945Z,10.57
2018-10-16T15:46:18.369Z,11.50
2018-10-16T15:48:45.576Z,10.88
2018-10-16T15:51:14.118Z,11.57
2018-10-16T15:53:41.458Z,11.43
2018-10-16T15:56:10.221Z,10.77
2018-10-16T15:58:38.175Z,11.35
2018-10-16T16:01:07.064Z,11.12
2018-10-16T16:03:36.725Z,11.48
2018-10-16T16:06:03.984Z,11.77
2018-10-16T16:08:32.823Z,12.23
2018-10-16T16:11:00.945Z,11.70
2018-10-16T16:13:30.711Z,11.90
2018-10-16T16:15:59.531Z,12.23
2018-10-16T16:18:31.835Z,11.63
2018-10-16T16:20:59.231Z,12.18
2018-10-16T16:23:28.158Z,11.90
2018-10-16T16:25:57.684Z,12.63
2018-10-16T16:28:25.799Z,11.15
2018-10-16T16:30:55.670Z,11.70
2018-10-16T16:33:28.225Z,12.40
2018-10-16T16:35:57.570Z,12.00
2018-10-16T16:38:26.141Z,12.77
2018-10-16T16:40:55.433Z,12.80
2018-10-16T16:43:24.793Z,13.50
2018-10-16T16:45:52.602Z,12.57
2018-10-16T16:48:22.257Z,12.77
2018-10-16T16:50:52.543Z,11.73
2018-10-16T16:53:22.847Z,12.95
2018-10-16T16:55:52.903Z,12.52
2018-10-16T16:58:23.192Z,14.02
2018-10-16T17:00:59.496Z,14.18
2018-10-16T17:03:27.590Z,15.10
2018-10-16T17:06:00.065Z,13.52
2018-10-16T17:08:28.756Z,12.68
2018-10-16T17:10:56.211Z,14.55
2018-10-16T17:13:26.026Z,14.38
2018-10-16T17:15:57.406Z,12.93
2018-10-16T17:18:26.458Z,13.60
2018-10-16T17:20:57.717Z,13.75
2018-10-16T17:23:25.687Z,14.68
2018-10-16T17:25:53.716Z,14.15
2018-10-16T17:28:22.005Z,14.68
2018-10-16T17:33:24.978Z,18.92
2018-10-16T17:35:56.446Z,14.02
2018-10-16T17:38:24.978Z,15.63
2018-10-16T17:40:56.941Z,15.20
2018-10-16T17:43:25.806Z,14.65
2018-10-16T17:45:54.550Z,14.00
2018-10-16T17:48:22.950Z,13.68
2018-10-16T17:50:51.387Z,20.52
2018-10-16T17:53:19.789Z,71.32
2018-10-16T17:55:49.116Z,17.92
2018-10-16T17:58:17.854Z,16.20
2018-10-16T18:00:46.387Z,15.55
2018-10-16T18:03:15.093Z,13.30
2018-10-16T18:05:42.071Z,14.07
2018-10-16T18:08:12.034Z,15.13
2018-10-16T18:10:42.203Z,13.90
2018-10-16T18:13:11.927Z,15.57
2018-10-16T18:15:39.482Z,17.10
2018-10-16T18:18:06.774Z,17.37
2018-10-16T18:20:35.276Z,16.40
2018-10-16T18:23:02.830Z,19.90
2018-10-16T18:25:31.186Z,18.30
2018-10-16T18:27:59.754Z,17.83
2018-10-16T18:30:30.686Z,18.15
2018-10-16T18:33:00.656Z,18.70
2018-10-16T18:35:28.055Z,15.32
2018-10-16T18:38:00.593Z,16.50
2018-10-16T18:40:35.101Z,15.70
2018-10-16T18:43:07.165Z,15.93
2018-10-16T18:45:41.458Z,18.15
2018-10-16T18:48:10.588Z,17.07
2018-10-16T18:50:39.227Z,17.70
2018-10-16T18:53:06.328Z,16.77
2018-10-16T18:55:36.033Z,17.60
2018-10-16T18:58:03.654Z,17.10
2018-10-16T19:00:36.129Z,16.33
2018-10-16T19:03:05.022Z,15.60
2018-10-16T19:05:35.150Z,15.50
2018-10-16T19:08:03.524Z,16.50
2018-10-16T19:10:32.051Z,18.40
2018-10-16T19:13:01.499Z,19.27
2018-10-16T19:15:38.179Z,17.95
2018-10-16T19:18:05.792Z,18.40
2018-10-16T19:20:33.300Z,16.67
2018-10-16T19:23:03.776Z,16.33
2018-10-16T19:25:30.885Z,18.70
2018-10-16T19:27:59.053Z,18.83
2018-10-16T19:30:30.329Z,27.90
2018-10-16T19:32:58.687Z,33.50
2018-10-16T19:35:29.724Z,23.97
2018-10-16T19:38:00.223Z,21.60
2018-10-16T19:40:29.399Z,21.20
2018-10-16T19:42:58.899Z,17.63
2018-10-16T19:45:31.810Z,16.80
2018-10-16T19:48:01.189Z,17.93
2018-10-16T19:50:29.882Z,18.70
2018-10-16T19:52:58.624Z,19.27
2018-10-16T19:58:03.287Z,19.07
2018-10-16T20:00:32.070Z,18.77
2018-10-16T20:03:01.285Z,19.90
2018-10-16T20:05:31.736Z,20.70
2018-10-16T20:08:00.214Z,21.30
2018-10-16T20:10:28.803Z,19.50
2018-10-16T20:13:00.615Z,18.77
2018-10-16T20:15:30.460Z,19.70
2018-10-16T20:17:59.769Z,19.00
2018-10-16T20:20:27.334Z,18.40
2018-10-16T20:22:55.769Z,18.33
2018-10-16T20:25:24.279Z,19.87
2018-10-16T20:27:54.994Z,20.10
2018-10-16T20:30:25.670Z,19.57
2018-10-16T20:32:56.654Z,18.97
2018-10-16T20:35:23.985Z,19.03
2018-10-16T20:37:53.319Z,20.97
2018-10-16T20:40:21.845Z,19.70
2018-10-16T20:42:51.246Z,18.40
2018-10-16T20:45:20.182Z,18.67
2018-10-16T20:47:47.806Z,18.83
2018-10-16T20:50:15.478Z,19.97
2018-10-16T20:52:43.193Z,20.40
2018-10-16T20:55:16.345Z,18.83
2018-10-16T20:57:44.536Z,20.23
2018-10-16T21:00:11.504Z,20.10
2018-10-16T21:02:38.560Z,17.57
2018-10-16T21:05:07.698Z,18.90
2018-10-16T21:07:34.593Z,19.40
2018-10-16T21:10:01.642Z,19.70
2018-10-16T21:12:28.695Z,20.97
2018-10-16T21:14:55.944Z,20.10
2018-10-16T21:17:23.095Z,20.57
2018-10-16T21:19:50.348Z,19.83
2018-10-16T21:22:17.809Z,19.93
2018-10-16T21:24:44.857Z,20.70
2018-10-16T21:27:11.908Z,19.97
2018-10-16T21:29:38.951Z,21.03
2018-10-16T21:32:06.001Z,20.97
2018-10-16T21:34:33.056Z,20.97
2018-10-16T21:37:00.228Z,20.00
2018-10-16T21:39:27.360Z,19.90
2018-10-16T21:41:54.401Z,20.97
2018-10-16T21:44:21.397Z,20.07
2018-10-16T21:46:48.601Z,21.10
2018-10-16T21:49:15.736Z,19.90
2018-10-16T21:51:42.804Z,20.20
2018-10-16T21:54:09.849Z,20.20
2018-10-16T21:56:36.901Z,20.03
2018-10-16T21:59:04.007Z,20.20
2018-10-16T22:01:32.639Z,21.23
2018-10-16T22:03:59.826Z,21.37
2018-10-16T22:06:26.836Z,21.70
2018-10-16T22:08:55.162Z,21.57
2018-10-16T22:11:22.874Z,22.40
2018-10-16T22:13:51.562Z,21.50
2018-10-16T22:16:18.620Z,21.00
2018-10-16T22:18:45.658Z,20.90
2018-10-16T22:21:12.706Z,21.03
2018-10-16T22:23:39.861Z,21.80
2018-10-16T22:26:06.913Z,22.07
2018-10-16T22:28:33.955Z,21.03
2018-10-16T22:31:01.031Z,20.83
2018-10-16T22:33:28.000Z,21.07
2018-10-16T22:35:55.021Z,20.27
2018-10-16T22:38:22.149Z,21.43
2018-10-16T22:40:49.204Z,21.17
2018-10-16T22:43:16.301Z,22.13
2018-10-16T22:45:43.295Z,21.10
2018-10-16T22:48:10.351Z,21.00
2018-10-16T22:50:37.392Z,21.80
2018-10-16T22:53:04.506Z,20.27
2018-10-16T22:55:31.493Z,21.60
2018-10-16T22:57:58.537Z,21.10
2018-10-16T23:00:25.424Z,21.20
2018-10-16T23:02:53.967Z,21.33
2018-10-16T23:05:21.022Z,20.90
2018-10-16T23:07:49.004Z,21.63
2018-10-16T23:10:16.138Z,20.93
2018-10-16T23:12:43.185Z,20.83
2018-10-16T23:15:10.239Z,20.93
2018-10-16T23:17:37.281Z,20.83
2018-10-16T23:20:04.331Z,19.17
2018-10-16T23:22:31.383Z,20.67
2018-10-16T23:24:58.481Z,19.67
2018-10-16T23:27:25.478Z,20.10
2018-10-16T23:29:52.529Z,19.17
2018-10-16T23:32:19.573Z,20.30
2018-10-16T23:34:46.563Z,20.43
2018-10-16T23:37:13.591Z,19.23
2018-10-16T23:39:40.617Z,20.40
2018-10-16T23:42:07.672Z,19.87
2018-10-16T23:44:34.713Z,19.50
2018-10-16T23:47:01.808Z,19.20
2018-10-16T23:49:29.221Z,18.70
2018-10-16T23:51:56.275Z,19.17
2018-10-16T23:54:23.321Z,19.33
2018-10-16T23:56:50.367Z,18.83
2018-10-16T23:59:17.620Z,17.60
